sensor_id;sensor_type;location;lat;lon;timestamp;pressure;altitude;pressure_sealevel;temperature;humidity
33265;BME280;31404;53.974;-1.086;2023-01-05T00:00:35;101237.98;;;7.01;100.00
33265;BME280;31404;53.974;-1.086;2023-01-05T00:05:35;101253.24;;;6.63;100.00
33265;BME280;31404;53.974;-1.086;2023-01-05T00:10:35;101260.38;;;7.82;100.00
33265;BME280;31404;53.974;-1.086;2023-01-05T00:15:36;101265.89;;;6.93;100.00
33265;BME280;31404;53.974;-1.086;2023-01-05T00:20:34;101275.69;;;7.31;100.00
33265;BME280;31404;53.974;-1.086;2023-01-05T00:25:38;101286.48;;;7.93;100.00
33265;BME280;31404;53.974;-1.086;2023-01-05T00:35:34;101285.40;;;7.20;100.00
33265;BME280;31404;53.974;-1.086;2023-01-05T00:40:35;101282.28;;;7.26;100.00
33265;BME280;31404;53.974;-1.086;2023-01-05T00:45:35;101293.29;;;7.54;100.00
33265;BME280;31404;53.974;-1.086;2023-01-05T00:50:34;101307.94;;;6.62;100.00
33265;BME280;31404;53.974;-1.086;2023-01-05T00:55:35;101312.55;;;7.36;100.00
33265;BME280;31404;53.974;-1.086;2023-01-05T01:00:35;101320.13;;;7.64;100.00
33265;BME280;31404;53.974;-1.086;2023-01-05T01:05:35;101332.80;;;8.73;100.00
33265;BME280;31404;53.974;-1.086;2023-01-05T01:15:35;101335.41;;;8.36;100.00
33265;BME280;31404;53.974;-1.086;2023-01-05T01:20:36;101335.73;;;9.61;100.00
33265;BME280;31404;53.974;-1.086;2023-01-05T01:25:36;101330.38;;;9.00;100.00
33265;BME280;31404;53.974;-1.086;2023-01-05T01:30:37;101334.08;;;7.73;100.00
33265;BME280;31404;53.974;-1.086;2023-01-05T01:35:36;101341.76;;;7.59;100.00
33265;BME280;31404;53.974;-1.086;2023-01-05T01:40:38;101335.51;;;7.08;100.00
33265;BME280;31404;53.974;-1.086;2023-01-05T01:45:35;101340.10;;;8.15;100.00
33265;BME280;31404;53.974;-1.086;2023-01-05T01:50:37;101363.52;;;7.09;100.00
33265;BME280;31404;53.974;-1.086;2023-01-05T01:55:35;101364.00;;;6.60;100.00
33265;BME280;31404;53.974;-1.086;2023-01-05T02:00:35;101379.03;;;6.31;100.00
33265;BME280;31404;53.974;-1.086;2023-01-05T02:05:35;101370.89;;;7.03;100.00
33265;BME280;31404;53.974;-1.086;2023-01-05T02:40:38;101416.81;;;8.29;100.00
33265;BME280;31404;53.974;-1.086;2023-01-05T02:45:35;101417.55;;;8.14;100.00
33265;BME280;31404;53.974;-1.086;2023-01-05T02:50:37;101423.37;;;9.15;100.00
33265;BME280;31404;53.974;-1.086;2023-01-05T02:55:37;101429.98;;;9.73;100.00
33265;BME280;31404;53.974;-1.086;2023-01-05T03:00:37;101436.79;;;10.81;100.00
33265;BME280;31404;53.974;-1.086;2023-01-05T03:15:36;101454.71;;;11.97;90.48
33265;BME280;31404;53.974;-1.086;2023-01-05T03:20:36;101467.74;;;11.20;93.42
33265;BME280;31404;53.974;-1.086;2023-01-05T03:30:38;101478.64;;;11.95;84.55
33265;BME280;31404;53.974;-1.086;2023-01-05T03:40:37;101475.40;;;11.76;85.66
33265;BME280;31404;53.974;-1.086;2023-01-05T03:45:38;101477.33;;;11.29;87.17
33265;BME280;31404;53.974;-1.086;2023-01-05T03:50:35;101468.77;;;11.89;86.11
33265;BME280;31404;53.974;-1.086;2023-01-05T03:55:35;101488.18;;;12.74;81.61
33265;BME280;31404;53.974;-1.086;2023-01-05T04:00:35;101497.04;;;12.61;82.28
33265;BME280;31404;53.974;-1.086;2023-01-05T04:05:35;101496.82;;;12.52;82.25
33265;BME280;31404;53.974;-1.086;2023-01-05T04:10:35;101499.71;;;13.10;78.77
33265;BME280;31404;53.974;-1.086;2023-01-05T04:15:35;101503.00;;;11.85;83.23
33265;BME280;31404;53.974;-1.086;2023-01-05T04:20:35;101505.47;;;11.40;84.93
33265;BME280;31404;53.974;-1.086;2023-01-05T04:25:35;101499.81;;;11.96;83.28
33265;BME280;31404;53.974;-1.086;2023-01-05T04:30:35;101508.27;;;11.57;85.01
33265;BME280;31404;53.974;-1.086;2023-01-05T04:35:35;101510.09;;;12.85;79.26
33265;BME280;31404;53.974;-1.086;2023-01-05T04:40:35;101513.77;;;10.68;87.19
33265;BME280;31404;53.974;-1.086;2023-01-05T04:45:35;101518.67;;;9.85;89.48
33265;BME280;31404;53.974;-1.086;2023-01-05T04:50:35;101526.03;;;10.43;91.73
33265;BME280;31404;53.974;-1.086;2023-01-05T04:55:35;101519.25;;;10.67;90.63
33265;BME280;31404;53.974;-1.086;2023-01-05T05:00:35;101509.40;;;10.51;90.05
33265;BME280;31404;53.974;-1.086;2023-01-05T05:05:35;101506.88;;;10.30;89.91
33265;BME280;31404;53.974;-1.086;2023-01-05T05:10:35;101510.09;;;10.77;88.76
33265;BME280;31404;53.974;-1.086;2023-01-05T05:15:36;101496.12;;;11.64;84.33
33265;BME280;31404;53.974;-1.086;2023-01-05T05:20:34;101483.26;;;11.73;82.80
33265;BME280;31404;53.974;-1.086;2023-01-05T05:25:34;101474.91;;;12.44;80.13
33265;BME280;31404;53.974;-1.086;2023-01-05T05:30:36;101498.86;;;12.72;78.65
33265;BME280;31404;53.974;-1.086;2023-01-05T05:35:34;101490.89;;;12.89;77.00
33265;BME280;31404;53.974;-1.086;2023-01-05T05:40:34;101495.85;;;12.50;78.03
33265;BME280;31404;53.974;-1.086;2023-01-05T05:45:34;101507.01;;;12.79;76.34
33265;BME280;31404;53.974;-1.086;2023-01-05T05:50:34;101511.14;;;12.62;77.48
33265;BME280;31404;53.974;-1.086;2023-01-05T05:55:34;101517.65;;;11.54;82.57
33265;BME280;31404;53.974;-1.086;2023-01-05T06:00:34;101510.20;;;11.99;80.63
33265;BME280;31404;53.974;-1.086;2023-01-05T06:05:35;101518.07;;;12.31;78.21
33265;BME280;31404;53.974;-1.086;2023-01-05T06:10:35;101509.80;;;12.08;79.74
33265;BME280;31404;53.974;-1.086;2023-01-05T06:15:35;101509.52;;;12.07;79.73
33265;BME280;31404;53.974;-1.086;2023-01-05T06:20:34;101513.49;;;11.34;82.49
33265;BME280;31404;53.974;-1.086;2023-01-05T06:25:37;101519.18;;;10.68;86.95
33265;BME280;31404;53.974;-1.086;2023-01-05T06:30:35;101520.16;;;10.59;86.50
33265;BME280;31404;53.974;-1.086;2023-01-05T06:35:35;101520.88;;;10.29;89.67
33265;BME280;31404;53.974;-1.086;2023-01-05T06:40:35;101531.70;;;11.38;84.85
33265;BME280;31404;53.974;-1.086;2023-01-05T06:45:36;101519.31;;;11.81;82.79
33265;BME280;31404;53.974;-1.086;2023-01-05T06:50:35;101539.29;;;11.14;84.88
33265;BME280;31404;53.974;-1.086;2023-01-05T06:55:35;101547.55;;;11.18;86.62
33265;BME280;31404;53.974;-1.086;2023-01-05T07:00:35;101548.37;;;9.33;95.48
33265;BME280;31404;53.974;-1.086;2023-01-05T07:05:34;101543.79;;;9.71;92.95
33265;BME280;31404;53.974;-1.086;2023-01-05T07:10:34;101546.23;;;10.72;87.82
33265;BME280;31404;53.974;-1.086;2023-01-05T07:15:34;101547.84;;;10.78;87.20
33265;BME280;31404;53.974;-1.086;2023-01-05T07:20:35;101557.29;;;10.11;88.69
33265;BME280;31404;53.974;-1.086;2023-01-05T07:25:35;101541.83;;;10.24;88.98
33265;BME280;31404;53.974;-1.086;2023-01-05T07:30:35;101528.93;;;10.76;87.01
33265;BME280;31404;53.974;-1.086;2023-01-05T07:35:35;101527.37;;;10.81;84.88
33265;BME280;31404;53.974;-1.086;2023-01-05T07:40:35;101534.68;;;10.64;87.17
33265;BME280;31404;53.974;-1.086;2023-01-05T07:45:35;101537.65;;;11.01;84.82
33265;BME280;31404;53.974;-1.086;2023-01-05T07:50:35;101542.83;;;9.32;92.52
33265;BME280;31404;53.974;-1.086;2023-01-05T07:55:35;101537.29;;;9.91;91.96
33265;BME280;31404;53.974;-1.086;2023-01-05T08:00:35;101539.96;;;7.67;100.00
33265;BME280;31404;53.974;-1.086;2023-01-05T08:05:35;101541.81;;;8.69;97.53
33265;BME280;31404;53.974;-1.086;2023-01-05T08:10:37;101532.63;;;8.32;99.37
33265;BME280;31404;53.974;-1.086;2023-01-05T08:15:35;101516.13;;;9.96;92.73
33265;BME280;31404;53.974;-1.086;2023-01-05T08:20:34;101528.53;;;8.05;100.00
33265;BME280;31404;53.974;-1.086;2023-01-05T08:25:35;101538.96;;;6.96;100.00
33265;BME280;31404;53.974;-1.086;2023-01-05T08:40:36;101534.74;;;8.08;100.00
33265;BME280;31404;53.974;-1.086;2023-01-05T08:45:34;101526.15;;;8.77;100.00
33265;BME280;31404;53.974;-1.086;2023-01-05T08:50:34;101523.86;;;9.81;95.05
33265;BME280;31404;53.974;-1.086;2023-01-05T08:55:34;101525.02;;;9.94;91.79
33265;BME280;31404;53.974;-1.086;2023-01-05T09:05:34;101526.79;;;9.87;92.12
33265;BME280;31404;53.974;-1.086;2023-01-05T09:10:34;101520.65;;;10.33;90.06
33265;BME280;31404;53.974;-1.086;2023-01-05T09:15:35;101525.04;;;9.53;92.28
33265;BME280;31404;53.974;-1.086;2023-01-05T09:20:35;101514.88;;;9.44;93.36
33265;BME280;31404;53.974;-1.086;2023-01-05T09:25:37;101503.80;;;10.16;89.60
33265;BME280;31404;53.974;-1.086;2023-01-05T09:30:34;101503.74;;;10.87;86.29
33265;BME280;31404;53.974;-1.086;2023-01-05T09:35:34;101503.62;;;10.58;86.78
33265;BME280;31404;53.974;-1.086;2023-01-05T09:45:35;101497.14;;;9.91;90.30
33265;BME280;31404;53.974;-1.086;2023-01-05T09:50:35;101492.01;;;10.39;89.18
33265;BME280;31404;53.974;-1.086;2023-01-05T09:55:35;101490.04;;;9.85;89.29
33265;BME280;31404;53.974;-1.086;2023-01-05T10:00:34;101488.81;;;10.09;90.13
33265;BME280;31404;53.974;-1.086;2023-01-05T10:05:38;101492.08;;;9.90;89.89
33265;BME280;31404;53.974;-1.086;2023-01-05T10:15:39;101494.40;;;9.84;89.43
33265;BME280;31404;53.974;-1.086;2023-01-05T10:45:36;101481.65;;;7.50;100.00
33265;BME280;31404;53.974;-1.086;2023-01-05T10:50:36;101466.35;;;9.10;100.00
33265;BME280;31404;53.974;-1.086;2023-01-05T11:05:36;101455.09;;;9.95;94.26
33265;BME280;31404;53.974;-1.086;2023-01-05T11:10:37;101444.79;;;9.56;95.45
33265;BME280;31404;53.974;-1.086;2023-01-05T11:20:35;101443.52;;;8.95;100.00
33265;BME280;31404;53.974;-1.086;2023-01-05T11:25:35;101435.94;;;9.19;100.00
33265;BME280;31404;53.974;-1.086;2023-01-05T11:30:35;101418.02;;;9.91;98.02
33265;BME280;31404;53.974;-1.086;2023-01-05T11:35:37;101415.43;;;9.39;99.55
33265;BME280;31404;53.974;-1.086;2023-01-05T11:40:35;101424.22;;;9.17;100.00
33265;BME280;31404;53.974;-1.086;2023-01-05T11:55:36;101391.12;;;8.92;100.00
33265;BME280;31404;53.974;-1.086;2023-01-05T12:55:38;101289.66;;;10.47;100.00
33265;BME280;31404;53.974;-1.086;2023-01-05T13:00:37;101273.59;;;10.87;100.00
33265;BME280;31404;53.974;-1.086;2023-01-05T13:20:38;101257.13;;;9.32;100.00
33265;BME280;31404;53.974;-1.086;2023-01-05T13:55:39;101215.37;;;11.86;95.74
33265;BME280;31404;53.974;-1.086;2023-01-05T14:00:50;101217.27;;;11.07;100.00
33265;BME280;31404;53.974;-1.086;2023-01-05T14:10:35;101185.38;;;12.18;95.70
33265;BME280;31404;53.974;-1.086;2023-01-05T14:15:39;101179.94;;;11.01;100.00
33265;BME280;31404;53.974;-1.086;2023-01-05T14:20:38;101158.39;;;10.80;100.00
33265;BME280;31404;53.974;-1.086;2023-01-05T14:30:34;101157.82;;;10.40;100.00
33265;BME280;31404;53.974;-1.086;2023-01-05T14:40:37;101150.23;;;9.03;100.00
33265;BME280;31404;53.974;-1.086;2023-01-05T14:45:37;101134.81;;;11.14;100.00
33265;BME280;31404;53.974;-1.086;2023-01-05T14:50:39;101130.45;;;11.76;100.00
33265;BME280;31404;53.974;-1.086;2023-01-05T14:55:36;101127.34;;;10.79;100.00
33265;BME280;31404;53.974;-1.086;2023-01-05T15:00:39;101101.69;;;11.45;100.00
33265;BME280;31404;53.974;-1.086;2023-01-05T15:05:37;101098.13;;;11.11;100.00
33265;BME280;31404;53.974;-1.086;2023-01-05T15:40:37;101050.99;;;9.47;100.00
33265;BME280;31404;53.974;-1.086;2023-01-05T15:45:36;101043.71;;;9.53;100.00
33265;BME280;31404;53.974;-1.086;2023-01-05T16:00:35;101026.62;;;10.17;100.00
33265;BME280;31404;53.974;-1.086;2023-01-05T16:05:35;101014.08;;;9.51;100.00
33265;BME280;31404;53.974;-1.086;2023-01-05T16:10:37;101014.56;;;10.31;100.00
33265;BME280;31404;53.974;-1.086;2023-01-05T16:15:36;100999.80;;;10.46;100.00
33265;BME280;31404;53.974;-1.086;2023-01-05T16:20:35;101010.62;;;11.14;100.00
33265;BME280;31404;53.974;-1.086;2023-01-05T16:25:38;101012.13;;;11.49;99.27
33265;BME280;31404;53.974;-1.086;2023-01-05T16:30:37;101005.19;;;11.33;98.51
33265;BME280;31404;53.974;-1.086;2023-01-05T16:40:35;100995.24;;;11.02;98.11
33265;BME280;31404;53.974;-1.086;2023-01-05T16:45:35;100986.02;;;11.94;94.27
33265;BME280;31404;53.974;-1.086;2023-01-05T16:55:35;100969.25;;;12.69;89.09
33265;BME280;31404;53.974;-1.086;2023-01-05T17:00:37;100967.13;;;10.95;96.41
33265;BME280;31404;53.974;-1.086;2023-01-05T17:05:35;100963.08;;;11.53;91.89
33265;BME280;31404;53.974;-1.086;2023-01-05T17:10:36;100953.89;;;10.33;98.72
33265;BME280;31404;53.974;-1.086;2023-01-05T17:15:38;100932.92;;;10.61;97.94
33265;BME280;31404;53.974;-1.086;2023-01-05T17:20:40;100936.98;;;10.03;100.00
33265;BME280;31404;53.974;-1.086;2023-01-05T17:25:39;100923.44;;;10.76;96.72
33265;BME280;31404;53.974;-1.086;2023-01-05T17:30:35;100927.33;;;10.27;99.26
33265;BME280;31404;53.974;-1.086;2023-01-05T17:35:35;100926.48;;;9.53;100.00
33265;BME280;31404;53.974;-1.086;2023-01-05T17:40:34;100917.10;;;10.55;100.00
33265;BME280;31404;53.974;-1.086;2023-01-05T17:45:38;100916.09;;;10.22;99.78
33265;BME280;31404;53.974;-1.086;2023-01-05T17:50:35;100907.38;;;10.15;100.00
33265;BME280;31404;53.974;-1.086;2023-01-05T17:55:35;100896.91;;;10.13;100.00
33265;BME280;31404;53.974;-1.086;2023-01-05T18:00:34;100893.39;;;10.19;100.00
33265;BME280;31404;53.974;-1.086;2023-01-05T18:05:34;100887.65;;;9.80;100.00
33265;BME280;31404;53.974;-1.086;2023-01-05T18:10:35;100873.23;;;9.21;100.00
33265;BME280;31404;53.974;-1.086;2023-01-05T18:20:35;100860.92;;;8.06;100.00
33265;BME280;31404;53.974;-1.086;2023-01-05T18:25:34;100853.99;;;8.61;100.00
33265;BME280;31404;53.974;-1.086;2023-01-05T18:30:34;100848.21;;;8.82;100.00
33265;BME280;31404;53.974;-1.086;2023-01-05T18:35:35;100840.24;;;7.43;100.00
33265;BME280;31404;53.974;-1.086;2023-01-05T18:40:35;100815.51;;;8.10;100.00
33265;BME280;31404;53.974;-1.086;2023-01-05T18:45:34;100803.74;;;7.84;100.00
33265;BME280;31404;53.974;-1.086;2023-01-05T19:00:37;100772.45;;;7.39;100.00
33265;BME280;31404;53.974;-1.086;2023-01-05T19:05:37;100759.88;;;7.33;100.00
33265;BME280;31404;53.974;-1.086;2023-01-05T19:10:34;100762.91;;;6.95;100.00
33265;BME280;31404;53.974;-1.086;2023-01-05T19:15:36;100766.41;;;7.33;100.00
33265;BME280;31404;53.974;-1.086;2023-01-05T19:20:34;100767.68;;;7.60;100.00
33265;BME280;31404;53.974;-1.086;2023-01-05T19:25:34;100767.14;;;7.58;100.00
33265;BME280;31404;53.974;-1.086;2023-01-05T19:30:34;100758.56;;;8.59;100.00
33265;BME280;31404;53.974;-1.086;2023-01-05T19:35:35;100751.38;;;8.69;100.00
33265;BME280;31404;53.974;-1.086;2023-01-05T19:40:35;100745.22;;;9.46;100.00
33265;BME280;31404;53.974;-1.086;2023-01-05T19:45:35;100734.69;;;8.89;100.00
33265;BME280;31404;53.974;-1.086;2023-01-05T19:50:35;100714.66;;;9.95;100.00
33265;BME280;31404;53.974;-1.086;2023-01-05T19:55:37;100704.54;;;10.24;99.33
33265;BME280;31404;53.974;-1.086;2023-01-05T20:00:34;100690.94;;;9.70;100.00
33265;BME280;31404;53.974;-1.086;2023-01-05T20:05:34;100676.50;;;8.67;100.00
33265;BME280;31404;53.974;-1.086;2023-01-05T20:10:37;100671.11;;;8.20;100.00
33265;BME280;31404;53.974;-1.086;2023-01-05T20:15:35;100657.94;;;7.70;100.00
33265;BME280;31404;53.974;-1.086;2023-01-05T20:20:34;100644.18;;;7.77;100.00
33265;BME280;31404;53.974;-1.086;2023-01-05T20:25:35;100625.98;;;7.74;100.00
33265;BME280;31404;53.974;-1.086;2023-01-05T20:30:35;100616.21;;;7.18;100.00
33265;BME280;31404;53.974;-1.086;2023-01-05T20:40:35;100603.57;;;7.66;100.00
33265;BME280;31404;53.974;-1.086;2023-01-05T20:45:34;100584.28;;;8.11;100.00
33265;BME280;31404;53.974;-1.086;2023-01-05T20:50:35;100576.44;;;8.85;100.00
33265;BME280;31404;53.974;-1.086;2023-01-05T20:55:37;100569.95;;;8.96;100.00
33265;BME280;31404;53.974;-1.086;2023-01-05T21:00:34;100572.33;;;7.80;100.00
33265;BME280;31404;53.974;-1.086;2023-01-05T21:10:36;100556.88;;;7.61;100.00
33265;BME280;31404;53.974;-1.086;2023-01-05T21:15:35;100548.66;;;8.21;100.00
33265;BME280;31404;53.974;-1.086;2023-01-05T21:20:34;100548.82;;;7.50;100.00
33265;BME280;31404;53.974;-1.086;2023-01-05T21:30:35;100530.87;;;8.21;100.00
33265;BME280;31404;53.974;-1.086;2023-01-05T21:35:35;100526.05;;;7.20;100.00
33265;BME280;31404;53.974;-1.086;2023-01-05T21:40:35;100509.56;;;8.18;100.00
33265;BME280;31404;53.974;-1.086;2023-01-05T21:45:36;100500.35;;;7.19;100.00
33265;BME280;31404;53.974;-1.086;2023-01-05T21:50:34;100495.46;;;7.48;100.00
33265;BME280;31404;53.974;-1.086;2023-01-05T21:55:34;100482.70;;;8.17;100.00
33265;BME280;31404;53.974;-1.086;2023-01-05T22:00:34;100476.98;;;8.37;100.00
33265;BME280;31404;53.974;-1.086;2023-01-05T22:05:34;100469.28;;;9.56;100.00
33265;BME280;31404;53.974;-1.086;2023-01-05T22:10:35;100562.20;;;7.64;100.00
33265;BME280;31404;53.974;-1.086;2023-01-05T22:15:35;100581.41;;;5.92;100.00
33265;BME280;31404;53.974;-1.086;2023-01-05T22:20:35;100581.09;;;5.02;100.00
33265;BME280;31404;53.974;-1.086;2023-01-05T22:25:34;100588.95;;;5.31;100.00
33265;BME280;31404;53.974;-1.086;2023-01-05T22:30:34;100586.12;;;5.83;100.00
33265;BME280;31404;53.974;-1.086;2023-01-05T22:40:34;100599.37;;;6.10;100.00
33265;BME280;31404;53.974;-1.086;2023-01-05T22:45:35;100600.67;;;7.21;100.00
33265;BME280;31404;53.974;-1.086;2023-01-05T22:50:35;100616.84;;;5.97;100.00
33265;BME280;31404;53.974;-1.086;2023-01-05T22:55:34;100631.23;;;6.81;100.00
33265;BME280;31404;53.974;-1.086;2023-01-05T23:00:35;100633.77;;;6.69;100.00
33265;BME280;31404;53.974;-1.086;2023-01-05T23:05:37;100642.23;;;6.11;100.00
33265;BME280;31404;53.974;-1.086;2023-01-05T23:10:35;100647.43;;;5.25;100.00
33265;BME280;31404;53.974;-1.086;2023-01-05T23:15:35;100668.66;;;4.88;100.00
33265;BME280;31404;53.974;-1.086;2023-01-05T23:20:34;100683.97;;;4.55;100.00
33265;BME280;31404;53.974;-1.086;2023-01-05T23:25:34;100694.58;;;4.64;100.00
33265;BME280;31404;53.974;-1.086;2023-01-05T23:30:34;100699.10;;;4.22;100.00
33265;BME280;31404;53.974;-1.086;2023-01-05T23:35:35;100690.59;;;4.28;100.00
33265;BME280;31404;53.974;-1.086;2023-01-05T23:45:36;100679.92;;;4.53;100.00
33265;BME280;31404;53.974;-1.086;2023-01-05T23:50:35;100666.13;;;5.35;100.00
33265;BME280;31404;53.974;-1.086;2023-01-05T23:55:35;100652.40;;;5.48;100.00
